createdAt,value
2018-02-08T00:01:31.373Z,12.37
2018-02-08T00:03:58.843Z,11.83
2018-02-08T00:06:26.329Z,10.90
2018-02-08T00:08:53.800Z,11.63
2018-02-08T00:11:21.250Z,11.97
2018-02-08T00:13:48.706Z,11.83
2018-02-08T00:16:16.588Z,11.50
2018-02-08T00:18:44.051Z,11.50
2018-02-08T00:21:11.506Z,11.33
2018-02-08T00:23:38.965Z,10.53
2018-02-08T00:26:06.451Z,11.13
2018-02-08T00:28:33.892Z,11.10
2018-02-08T00:31:01.351Z,11.83
2018-02-08T00:33:28.822Z,11.00
2018-02-08T00:35:56.270Z,10.87
2018-02-08T00:38:23.709Z,11.67
2018-02-08T00:40:51.949Z,11.83
2018-02-08T00:43:19.396Z,11.33
2018-02-08T00:45:46.869Z,11.90
2018-02-08T00:48:14.308Z,11.40
2018-02-08T00:50:41.761Z,11.97
2018-02-08T00:53:09.242Z,11.27
2018-02-08T00:55:36.698Z,12.13
2018-02-08T00:58:04.160Z,11.87
2018-02-08T01:00:31.632Z,12.50
2018-02-08T01:02:59.089Z,11.73
2018-02-08T01:05:26.552Z,12.07
2018-02-08T01:10:28.653Z,11.73
2018-02-08T01:12:56.115Z,11.77
2018-02-08T01:15:23.564Z,11.43
2018-02-08T01:17:51.018Z,11.77
2018-02-08T01:20:18.480Z,12.17
2018-02-08T01:22:45.964Z,12.17
2018-02-08T01:25:13.428Z,12.23
2018-02-08T01:27:40.897Z,11.67
2018-02-08T01:30:08.466Z,11.93
2018-02-08T01:32:35.913Z,12.87
2018-02-08T01:35:03.369Z,11.57
2018-02-08T01:37:30.820Z,12.30
2018-02-08T01:39:58.290Z,12.43
2018-02-08T01:42:25.758Z,12.03
2018-02-08T01:44:53.208Z,11.90
2018-02-08T01:47:20.675Z,12.70
2018-02-08T01:49:48.151Z,11.93
2018-02-08T01:52:15.630Z,12.03
2018-02-08T01:54:43.133Z,12.10
2018-02-08T01:57:10.595Z,12.23
2018-02-08T01:59:38.812Z,12.07
2018-02-08T02:02:06.272Z,12.47
2018-02-08T02:04:33.722Z,13.33
2018-02-08T02:07:01.179Z,12.53
2018-02-08T02:09:28.662Z,12.20
2018-02-08T02:11:56.128Z,12.87
2018-02-08T02:14:23.585Z,12.47
2018-02-08T02:16:51.069Z,13.00
2018-02-08T02:19:18.538Z,11.83
2018-02-08T02:21:46.006Z,13.13
2018-02-08T02:24:13.637Z,12.20
2018-02-08T02:26:41.106Z,12.03
2018-02-08T02:29:08.566Z,12.53
2018-02-08T02:31:36.031Z,12.10
2018-02-08T02:34:03.553Z,12.43
2018-02-08T02:36:31.013Z,13.20
2018-02-08T02:38:58.464Z,12.50
2018-02-08T02:41:25.929Z,12.53
2018-02-08T02:43:53.396Z,12.77
2018-02-08T02:46:20.853Z,12.47
2018-02-08T02:48:48.325Z,12.30
2018-02-08T02:51:15.791Z,12.60
2018-02-08T02:53:43.254Z,12.50
2018-02-08T02:56:10.702Z,12.17
2018-02-08T02:58:38.157Z,13.50
2018-02-08T03:01:05.632Z,11.50
2018-02-08T03:03:33.109Z,12.80
2018-02-08T03:06:01.324Z,13.80
2018-02-08T03:08:28.790Z,13.23
2018-02-08T03:10:56.249Z,12.37
2018-02-08T03:13:23.719Z,12.97
2018-02-08T03:15:51.180Z,12.30
2018-02-08T03:18:18.661Z,13.30
2018-02-08T03:20:46.125Z,12.67
2018-02-08T03:23:13.604Z,13.37
2018-02-08T03:25:41.093Z,12.50
2018-02-08T03:28:09.305Z,13.30
2018-02-08T03:30:36.806Z,12.87
2018-02-08T03:33:04.248Z,13.00
2018-02-08T03:35:31.699Z,13.20
2018-02-08T03:37:59.157Z,12.50
2018-02-08T03:40:26.611Z,13.10
2018-02-08T03:42:54.070Z,12.37
2018-02-08T03:45:21.531Z,13.13
2018-02-08T03:47:48.977Z,13.10
2018-02-08T03:50:17.239Z,13.70
2018-02-08T03:52:45.112Z,13.27
2018-02-08T03:55:12.578Z,12.43
2018-02-08T03:57:40.037Z,12.23
2018-02-08T04:00:07.493Z,12.80
2018-02-08T04:02:35.320Z,12.70
2018-02-08T04:05:02.771Z,12.97
2018-02-08T04:07:30.989Z,13.93
2018-02-08T04:09:58.453Z,13.30
2018-02-08T04:12:25.902Z,13.77
2018-02-08T04:14:53.385Z,13.20
2018-02-08T04:17:20.844Z,12.80
2018-02-08T04:22:22.211Z,13.27
2018-02-08T04:24:49.675Z,13.57
2018-02-08T04:27:17.133Z,13.33
2018-02-08T04:29:44.598Z,13.30
2018-02-08T04:32:12.060Z,14.20
2018-02-08T04:34:39.511Z,14.07
2018-02-08T04:37:06.955Z,12.83
2018-02-08T04:39:46.089Z,12.60
2018-02-08T04:42:25.528Z,12.40
2018-02-08T04:45:05.034Z,13.23
2018-02-08T04:47:54.887Z,13.07
2018-02-08T04:50:22.339Z,13.73
2018-02-08T04:52:49.829Z,13.37
2018-02-08T04:55:18.047Z,13.20
2018-02-08T04:57:45.508Z,13.23
2018-02-08T05:00:12.965Z,12.43
2018-02-08T05:02:40.416Z,13.20
2018-02-08T05:05:08.648Z,12.33
2018-02-08T05:07:36.106Z,12.70
2018-02-08T05:10:03.616Z,14.17
2018-02-08T05:12:31.031Z,13.20
2018-02-08T05:14:58.495Z,12.53
2018-02-08T05:17:26.713Z,13.07
2018-02-08T05:19:54.934Z,12.33
2018-02-08T05:22:22.411Z,13.63
2018-02-08T05:24:49.864Z,13.90
2018-02-08T05:27:17.322Z,13.50
2018-02-08T05:29:44.795Z,13.13
2018-02-08T05:32:12.264Z,14.13
2018-02-08T05:34:39.717Z,13.13
2018-02-08T05:37:07.180Z,13.23
2018-02-08T05:39:34.643Z,13.47
2018-02-08T05:42:02.091Z,14.07
2018-02-08T05:44:29.553Z,13.30
2018-02-08T05:46:57.018Z,14.00
2018-02-08T05:49:24.462Z,13.33
2018-02-08T05:51:51.928Z,13.40
2018-02-08T05:54:19.410Z,13.90
2018-02-08T05:56:46.922Z,13.03
2018-02-08T05:59:14.381Z,13.20
2018-02-08T06:01:41.854Z,14.10
2018-02-08T06:04:10.088Z,14.30
2018-02-08T06:06:37.564Z,15.10
2018-02-08T06:09:05.016Z,13.77
2018-02-08T06:11:32.524Z,13.50
2018-02-08T06:14:00.747Z,14.50
2018-02-08T06:16:28.211Z,14.47
2018-02-08T06:18:55.674Z,13.97
2018-02-08T06:21:23.138Z,18.92
2018-02-08T06:23:50.640Z,16.17
2018-02-08T06:26:18.084Z,16.77
2018-02-08T06:28:45.543Z,14.80
2018-02-08T06:31:12.999Z,14.43
2018-02-08T06:33:40.475Z,15.00
2018-02-08T06:36:07.957Z,15.00
2018-02-08T06:38:35.420Z,15.27
2018-02-08T06:41:02.862Z,15.13
2018-02-08T06:43:30.337Z,14.43
2018-02-08T06:45:57.801Z,15.57
2018-02-08T06:48:25.276Z,15.57
2018-02-08T06:50:52.716Z,14.83
2018-02-08T06:53:20.175Z,14.63
2018-02-08T06:55:47.630Z,14.23
2018-02-08T06:58:15.211Z,15.77
2018-02-08T07:00:42.648Z,14.87
2018-02-08T07:03:10.099Z,15.33
2018-02-08T07:05:37.561Z,15.20
2018-02-08T07:08:05.007Z,15.47
2018-02-08T07:10:32.468Z,15.27
2018-02-08T07:12:59.934Z,15.20
2018-02-08T07:15:27.379Z,14.10
2018-02-08T07:17:55.623Z,15.57
2018-02-08T07:20:23.063Z,14.77
2018-02-08T07:22:50.537Z,15.03
2018-02-08T07:25:17.994Z,14.67
2018-02-08T07:27:45.447Z,14.87
2018-02-08T07:30:12.916Z,16.43
2018-02-08T07:32:40.379Z,16.13
2018-02-08T07:35:08.595Z,15.00
2018-02-08T07:37:36.074Z,16.03
2018-02-08T07:40:04.294Z,16.67
2018-02-08T07:42:31.751Z,15.60
2018-02-08T07:44:59.208Z,16.60
2018-02-08T07:47:26.774Z,14.67
2018-02-08T07:49:54.230Z,15.20
2018-02-08T07:52:21.679Z,15.63
2018-02-08T07:54:50.114Z,15.80
2018-02-08T07:57:17.587Z,15.60
2018-02-08T07:59:45.054Z,15.20
2018-02-08T08:02:12.499Z,15.57
2018-02-08T08:04:39.978Z,15.60
2018-02-08T08:07:07.443Z,15.70
2018-02-08T08:09:34.919Z,15.60
2018-02-08T08:12:02.454Z,15.40
2018-02-08T08:14:29.906Z,15.13
2018-02-08T08:16:57.367Z,15.47
2018-02-08T08:19:24.832Z,14.80
2018-02-08T08:21:52.290Z,16.00
2018-02-08T08:24:19.775Z,16.47
2018-02-08T08:26:47.236Z,15.47
2018-02-08T08:29:14.703Z,17.23
2018-02-08T08:31:42.167Z,14.93
2018-02-08T08:34:09.631Z,14.93
2018-02-08T08:36:37.080Z,16.00
2018-02-08T08:39:04.514Z,16.07
2018-02-08T08:41:31.992Z,15.87
2018-02-08T08:43:59.452Z,15.50
2018-02-08T08:46:26.903Z,16.27
2018-02-08T08:48:54.413Z,15.77
2018-02-08T08:51:21.835Z,14.87
2018-02-08T08:53:49.300Z,17.53
2018-02-08T08:56:16.754Z,14.97
2018-02-08T08:58:44.208Z,15.50
2018-02-08T09:01:11.657Z,15.80
2018-02-08T09:03:39.900Z,15.00
2018-02-08T09:06:07.377Z,16.03
2018-02-08T09:08:34.857Z,16.00
2018-02-08T09:11:03.089Z,15.27
2018-02-08T09:13:30.535Z,16.97
2018-02-08T09:15:57.999Z,16.73
2018-02-08T09:18:25.453Z,14.47
2018-02-08T09:20:52.904Z,15.37
2018-02-08T09:23:20.361Z,15.50
2018-02-08T09:25:47.833Z,16.40
2018-02-08T09:28:15.315Z,17.07
2018-02-08T09:30:42.752Z,17.37
2018-02-08T09:33:10.235Z,17.17
2018-02-08T09:35:37.694Z,16.23
2018-02-08T09:38:05.181Z,15.70
2018-02-08T09:40:32.623Z,16.47
2018-02-08T09:43:00.061Z,14.73
2018-02-08T09:45:27.523Z,16.00
2018-02-08T09:47:55.767Z,15.97
2018-02-08T09:50:23.203Z,16.40
2018-02-08T09:52:50.650Z,16.73
2018-02-08T09:55:18.095Z,17.43
2018-02-08T09:57:46.316Z,16.10
2018-02-08T10:00:13.773Z,18.43
2018-02-08T10:02:41.982Z,16.87
2018-02-08T10:05:09.430Z,16.80
2018-02-08T10:07:36.970Z,17.60
2018-02-08T10:10:04.421Z,17.13
2018-02-08T10:12:31.891Z,17.53
2018-02-08T10:14:59.368Z,17.20
2018-02-08T10:17:26.824Z,17.83
2018-02-08T10:19:54.274Z,17.43
2018-02-08T10:22:21.722Z,18.07
2018-02-08T10:24:49.180Z,16.70
2018-02-08T10:27:17.404Z,18.10
2018-02-08T10:29:44.863Z,18.33
2018-02-08T10:32:12.384Z,18.77
2018-02-08T10:34:40.606Z,18.37
2018-02-08T10:37:08.065Z,19.13
2018-02-08T10:39:35.515Z,17.80
2018-02-08T10:42:02.965Z,19.37
2018-02-08T10:44:30.421Z,18.33
2018-02-08T10:46:57.880Z,17.80
2018-02-08T10:49:26.094Z,18.07
2018-02-08T10:51:53.543Z,19.93
2018-02-08T10:54:21.003Z,19.50
2018-02-08T10:56:48.445Z,17.97
2018-02-08T10:59:16.663Z,18.37
2018-02-08T11:01:44.872Z,19.00
2018-02-08T11:04:12.328Z,19.13
2018-02-08T11:06:39.777Z,18.60
2018-02-08T11:09:07.239Z,16.90
2018-02-08T11:11:34.692Z,18.83
2018-02-08T11:14:02.142Z,18.53
2018-02-08T11:16:29.569Z,18.57
2018-02-08T11:18:57.802Z,18.23
2018-02-08T11:21:25.276Z,19.37
2018-02-08T11:23:52.715Z,19.73
2018-02-08T11:26:20.220Z,18.70
2018-02-08T11:28:47.642Z,18.63
2018-02-08T11:31:15.090Z,18.10
2018-02-08T11:33:42.525Z,18.80
2018-02-08T11:36:10.749Z,18.73
2018-02-08T11:38:38.199Z,19.17
2018-02-08T11:41:05.725Z,17.67
2018-02-08T11:43:33.187Z,19.53
2018-02-08T11:46:00.621Z,18.13
2018-02-08T11:48:28.088Z,18.80
2018-02-08T11:50:55.542Z,19.17
2018-02-08T11:53:23.000Z,18.27
2018-02-08T11:55:50.442Z,18.57
2018-02-08T11:58:17.925Z,19.60
2018-02-08T12:00:45.388Z,18.87
2018-02-08T12:03:12.819Z,19.43
2018-02-08T12:05:40.284Z,18.57
2018-02-08T12:08:07.756Z,18.53
2018-02-08T12:10:35.221Z,19.10
2018-02-08T12:13:02.680Z,17.77
2018-02-08T12:15:30.172Z,16.83
2018-02-08T12:17:57.636Z,16.20
2018-02-08T12:20:25.090Z,17.23
2018-02-08T12:22:52.551Z,16.90
2018-02-08T12:25:20.019Z,15.57
2018-02-08T12:27:47.479Z,14.80
2018-02-08T12:30:15.021Z,15.23
2018-02-08T12:32:42.452Z,15.87
2018-02-08T12:35:09.918Z,14.30
2018-02-08T12:37:38.149Z,12.77
2018-02-08T12:40:05.619Z,13.80
2018-02-08T12:42:33.100Z,14.23
2018-02-08T12:45:00.553Z,14.50
2018-02-08T12:47:28.012Z,14.07
2018-02-08T12:49:55.477Z,12.67
2018-02-08T12:52:22.921Z,11.90
2018-02-08T12:54:50.396Z,12.53
2018-02-08T12:57:17.848Z,11.70
2018-02-08T12:59:45.307Z,12.20
2018-02-08T13:02:12.770Z,12.33
2018-02-08T13:04:40.231Z,11.57
2018-02-08T13:07:07.692Z,11.23
2018-02-08T13:09:35.139Z,10.47
2018-02-08T13:12:02.619Z,10.47
2018-02-08T13:14:30.094Z,8.93
2018-02-08T13:16:57.554Z,9.47
2018-02-08T13:19:25.032Z,9.20
2018-02-08T13:21:52.498Z,10.13
2018-02-08T13:24:19.952Z,9.17
2018-02-08T13:26:47.408Z,8.67
2018-02-08T13:29:14.879Z,7.93
2018-02-08T13:31:43.133Z,8.73
2018-02-08T13:34:10.625Z,8.67
2018-02-08T13:36:38.060Z,8.73
2018-02-08T13:39:05.912Z,7.90
2018-02-08T13:41:34.556Z,7.83
2018-02-08T13:44:02.015Z,7.33
2018-02-08T13:46:29.467Z,7.27
2018-02-08T13:49:11.806Z,8.03
2018-02-08T13:51:45.717Z,7.10
2018-02-08T13:54:17.564Z,7.37
2018-02-08T13:56:45.447Z,7.53
2018-02-08T13:59:23.566Z,7.30
2018-02-08T14:01:56.428Z,7.77
2018-02-08T14:04:23.875Z,7.13
2018-02-08T14:06:51.345Z,8.17
2018-02-08T14:09:18.815Z,7.13
2018-02-08T14:11:46.276Z,8.13
2018-02-08T14:14:13.748Z,7.50
2018-02-08T14:16:41.215Z,6.97
2018-02-08T14:19:08.674Z,7.60
2018-02-08T14:21:36.146Z,7.47
2018-02-08T14:24:04.387Z,7.57
2018-02-08T14:26:31.848Z,7.20
2018-02-08T14:28:59.313Z,8.20
2018-02-08T14:31:26.762Z,7.30
2018-02-08T14:33:54.214Z,7.43
2018-02-08T14:36:21.677Z,7.37
2018-02-08T14:38:49.131Z,7.40
2018-02-08T14:41:16.590Z,7.17
2018-02-08T14:43:44.030Z,7.50
2018-02-08T14:46:12.259Z,7.50
2018-02-08T14:48:39.747Z,7.50
2018-02-08T14:51:07.206Z,7.70
2018-02-08T14:53:34.666Z,7.20
2018-02-08T14:56:02.126Z,7.57
2018-02-08T14:58:29.573Z,6.83
2018-02-08T15:00:57.041Z,6.10
2018-02-08T15:03:24.487Z,6.40
2018-02-08T15:05:51.935Z,6.83
2018-02-08T15:08:19.383Z,6.80
2018-02-08T15:10:47.595Z,5.87
2018-02-08T15:13:15.052Z,5.90
2018-02-08T15:15:42.507Z,6.33
2018-02-08T15:18:09.975Z,7.20
2018-02-08T15:20:37.421Z,6.53
2018-02-08T15:23:04.885Z,6.50
2018-02-08T15:25:32.342Z,6.17
2018-02-08T15:28:00.578Z,6.57
2018-02-08T15:30:28.054Z,6.33
2018-02-08T15:32:55.518Z,5.90
2018-02-08T15:35:22.984Z,5.33
2018-02-08T15:37:51.227Z,5.90
2018-02-08T15:40:18.710Z,6.33
2018-02-08T15:42:46.153Z,6.40
2018-02-08T15:45:13.663Z,6.03
2018-02-08T15:47:41.133Z,6.17
2018-02-08T15:50:08.580Z,5.87
2018-02-08T15:52:36.014Z,5.93
2018-02-08T15:55:03.500Z,5.87
2018-02-08T15:57:30.915Z,5.87
2018-02-08T15:59:58.394Z,5.90
2018-02-08T16:02:25.874Z,6.43
2018-02-08T16:04:53.315Z,6.23
2018-02-08T16:07:20.774Z,6.53
2018-02-08T16:09:48.246Z,6.23
2018-02-08T16:12:15.734Z,6.30
2018-02-08T16:14:43.195Z,5.90
2018-02-08T16:17:10.658Z,5.70
2018-02-08T16:19:38.129Z,6.53
2018-02-08T16:22:05.548Z,6.37
2018-02-08T16:24:33.022Z,6.40
2018-02-08T16:27:00.462Z,6.33
2018-02-08T16:29:27.914Z,6.17
2018-02-08T16:31:55.367Z,6.33
2018-02-08T16:34:23.566Z,6.10
2018-02-08T16:36:51.031Z,5.80
2018-02-08T16:39:18.479Z,6.30
2018-02-08T16:41:45.943Z,6.13
2018-02-08T16:44:13.397Z,7.30
2018-02-08T16:46:41.631Z,7.00
2018-02-08T16:49:09.086Z,6.83
2018-02-08T16:51:36.556Z,6.77
2018-02-08T16:54:04.091Z,7.20
2018-02-08T16:56:31.580Z,7.03
2018-02-08T16:58:59.015Z,7.10
2018-02-08T17:01:26.453Z,7.60
2018-02-08T17:03:54.672Z,7.20
2018-02-08T17:06:22.120Z,7.57
2018-02-08T17:08:49.593Z,6.73
2018-02-08T17:11:17.049Z,7.00
2018-02-08T17:13:44.505Z,6.47
2018-02-08T17:16:11.955Z,7.53
2018-02-08T17:18:39.561Z,7.50
2018-02-08T17:21:07.768Z,6.83
2018-02-08T17:23:35.230Z,7.17
2018-02-08T17:26:02.685Z,6.87
2018-02-08T17:28:30.139Z,7.27
2018-02-08T17:30:57.598Z,6.77
2018-02-08T17:33:25.079Z,7.37
2018-02-08T17:35:52.513Z,6.90
2018-02-08T17:38:19.991Z,6.83
2018-02-08T17:40:47.434Z,6.60
2018-02-08T17:43:14.893Z,7.83
2018-02-08T17:45:43.116Z,6.80
2018-02-08T17:48:10.598Z,7.60
2018-02-08T17:50:38.435Z,7.23
2018-02-08T17:53:06.680Z,6.67
2018-02-08T17:55:34.134Z,7.00
2018-02-08T17:58:01.597Z,6.63
2018-02-08T18:00:29.033Z,7.33
2018-02-08T18:02:57.249Z,7.30
2018-02-08T18:05:24.710Z,7.17
2018-02-08T18:07:52.539Z,6.37
2018-02-08T18:10:20.753Z,7.33
2018-02-08T18:12:48.173Z,7.33
2018-02-08T18:15:15.677Z,6.67
2018-02-08T18:17:43.080Z,6.87
2018-02-08T18:20:10.533Z,7.17
2018-02-08T18:22:38.002Z,6.87
2018-02-08T18:25:05.459Z,6.77
2018-02-08T18:27:32.947Z,6.37
2018-02-08T18:30:00.404Z,7.20
2018-02-08T18:32:27.856Z,6.33
2018-02-08T18:34:55.336Z,6.83
2018-02-08T18:37:22.830Z,6.70
2018-02-08T18:39:50.248Z,7.60
2018-02-08T18:42:17.720Z,6.77
2018-02-08T18:44:45.179Z,6.90
2018-02-08T18:47:12.634Z,7.62
2018-02-08T18:49:40.130Z,8.23
2018-02-08T18:52:08.359Z,8.70
2018-02-08T18:54:35.824Z,8.30
2018-02-08T18:57:03.278Z,8.17
2018-02-08T18:59:30.816Z,8.90
2018-02-08T19:01:58.289Z,8.53
2018-02-08T19:04:25.781Z,8.00
2018-02-08T19:06:53.272Z,8.50
2018-02-08T19:09:20.751Z,8.47
2018-02-08T19:11:48.231Z,8.60
2018-02-08T19:14:16.466Z,8.13
2018-02-08T19:16:43.946Z,7.93
2018-02-08T19:19:11.402Z,8.77
2018-02-08T19:21:41.293Z,8.83
2018-02-08T19:24:08.775Z,9.00
2018-02-08T19:26:36.294Z,9.40
2018-02-08T19:29:04.865Z,8.57
2018-02-08T19:31:33.193Z,8.87
2018-02-08T19:34:00.839Z,9.47
2018-02-08T19:36:28.289Z,9.00
2018-02-08T19:38:55.752Z,9.20
2018-02-08T19:41:23.312Z,9.37
2018-02-08T19:43:51.508Z,9.33
2018-02-08T19:46:18.968Z,8.67
2018-02-08T19:48:46.434Z,9.23
2018-02-08T19:51:13.892Z,10.20
2018-02-08T19:53:41.368Z,10.17
2018-02-08T19:56:08.853Z,10.17
2018-02-08T19:58:36.325Z,10.37
2018-02-08T20:01:03.843Z,10.10
2018-02-08T20:03:31.289Z,9.70
2018-02-08T20:05:59.551Z,10.70
2018-02-08T20:08:27.007Z,9.83
2018-02-08T20:10:54.468Z,9.63
2018-02-08T20:13:21.920Z,10.63
2018-02-08T20:15:49.388Z,10.10
2018-02-08T20:18:16.891Z,11.13
2018-02-08T20:20:44.405Z,10.63
2018-02-08T20:23:11.880Z,11.03
2018-02-08T20:25:44.172Z,10.63
2018-02-08T20:28:12.392Z,12.27
2018-02-08T20:30:39.847Z,10.77
2018-02-08T20:33:07.293Z,10.33
2018-02-08T20:35:34.738Z,10.47
2018-02-08T20:38:02.977Z,9.90
2018-02-08T20:40:30.457Z,11.00
2018-02-08T20:43:03.540Z,10.40
2018-02-08T20:45:30.995Z,11.37
2018-02-08T20:47:58.476Z,11.53
2018-02-08T20:50:26.006Z,12.30
2018-02-08T20:52:53.476Z,11.37
2018-02-08T20:55:20.926Z,11.17
2018-02-08T20:57:48.366Z,11.27
2018-02-08T21:00:15.846Z,11.17
2018-02-08T21:02:43.306Z,12.30
2018-02-08T21:05:10.777Z,12.10
2018-02-08T21:07:38.230Z,11.57
2018-02-08T21:10:05.693Z,11.27
2018-02-08T21:12:33.176Z,12.20
2018-02-08T21:15:00.636Z,11.37
2018-02-08T21:17:28.865Z,11.80
2018-02-08T21:19:56.370Z,11.83
2018-02-08T21:22:23.849Z,12.93
2018-02-08T21:24:51.315Z,12.87
2018-02-08T21:27:18.779Z,12.00
2018-02-08T21:29:46.258Z,12.87
2018-02-08T21:32:13.767Z,12.07
2018-02-08T21:34:41.271Z,12.60
2018-02-08T21:37:08.909Z,13.23
2018-02-08T21:39:36.367Z,12.07
2018-02-08T21:42:03.852Z,12.40
2018-02-08T21:44:31.305Z,13.40
2018-02-08T21:46:58.770Z,12.43
2018-02-08T21:49:26.223Z,13.57
2018-02-08T21:51:53.740Z,12.53
2018-02-08T21:54:21.198Z,14.23
2018-02-08T21:56:48.664Z,13.10
2018-02-08T21:59:16.137Z,13.40
2018-02-08T22:01:44.413Z,14.00
2018-02-08T22:04:11.888Z,13.10
2018-02-08T22:06:40.146Z,13.13
2018-02-08T22:09:07.612Z,13.83
2018-02-08T22:11:35.107Z,14.07
2018-02-08T22:14:03.330Z,14.53
2018-02-08T22:16:30.801Z,13.27
2018-02-08T22:18:58.283Z,14.03
2018-02-08T22:21:25.728Z,14.20
2018-02-08T22:23:53.180Z,13.60
2018-02-08T22:26:21.456Z,14.40
2018-02-08T22:28:48.921Z,13.93
2018-02-08T22:31:16.372Z,15.30
2018-02-08T22:33:43.827Z,14.43
2018-02-08T22:36:11.292Z,15.10
2018-02-08T22:38:38.721Z,13.90
2018-02-08T22:41:07.034Z,14.87
2018-02-08T22:43:34.504Z,16.10
2018-02-08T22:46:01.962Z,15.77
2018-02-08T22:48:29.435Z,15.23
2018-02-08T22:50:56.918Z,16.43
2018-02-08T22:53:24.375Z,16.90
2018-02-08T22:55:51.828Z,14.93
2018-02-08T22:58:19.285Z,15.93
2018-02-08T23:00:46.746Z,15.33
2018-02-08T23:03:14.206Z,16.40
2018-02-08T23:05:41.669Z,15.57
2018-02-08T23:08:09.124Z,15.57
2018-02-08T23:10:36.586Z,16.23
2018-02-08T23:13:04.029Z,16.03
2018-02-08T23:15:32.277Z,16.17
2018-02-08T23:17:59.722Z,16.63
2018-02-08T23:20:27.190Z,16.17
2018-02-08T23:22:54.644Z,16.40
2018-02-08T23:25:22.100Z,16.47
2018-02-08T23:27:49.572Z,16.23
2018-02-08T23:30:17.027Z,15.93
2018-02-08T23:32:44.485Z,16.63
2018-02-08T23:35:11.936Z,17.03
2018-02-08T23:37:39.408Z,16.37
2018-02-08T23:40:06.869Z,16.33
2018-02-08T23:42:34.341Z,16.27
2018-02-08T23:45:01.780Z,16.33
2018-02-08T23:47:29.227Z,17.47
2018-02-08T23:49:56.676Z,16.53
2018-02-08T23:52:24.909Z,16.90
2018-02-08T23:54:52.372Z,16.60
2018-02-08T23:57:19.823Z,16.57
2018-02-08T23:59:47.285Z,17.07
